sensor_id;sensor_type;location;lat;lon;timestamp;pressure;altitude;pressure_sealevel;temperature;humidity
84841;BME280;75088;53.114;18.040;2023-12-20T17:20:58;99738.23;;;4.77;75.53
84841;BME280;75088;53.114;18.040;2023-12-20T17:22:05;99725.45;;;4.65;75.55
84841;BME280;75088;53.114;18.040;2023-12-20T17:23:12;99739.89;;;4.57;75.46
84841;BME280;75088;53.114;18.040;2023-12-20T17:24:19;99741.48;;;4.50;75.95
84841;BME280;75088;53.114;18.040;2023-12-20T17:25:26;99748.70;;;4.44;75.78
84841;BME280;75088;53.114;18.040;2023-12-20T17:26:33;99745.54;;;4.40;75.78
84841;BME280;75088;53.114;18.040;2023-12-20T17:27:40;99737.29;;;4.37;75.46
84841;BME280;75088;53.114;18.040;2023-12-20T17:28:48;99734.67;;;4.34;75.63
84841;BME280;75088;53.114;18.040;2023-12-20T17:29:56;99730.80;;;4.31;75.40
84841;BME280;75088;53.114;18.040;2023-12-20T17:31:03;99735.90;;;4.29;75.54
84841;BME280;75088;53.114;18.040;2023-12-20T17:32:11;99736.79;;;4.27;75.55
84841;BME280;75088;53.114;18.040;2023-12-20T17:33:18;99736.95;;;4.24;75.40
84841;BME280;75088;53.114;18.040;2023-12-20T17:34:25;99729.05;;;4.22;75.23
84841;BME280;75088;53.114;18.040;2023-12-20T17:35:33;99727.48;;;4.21;75.11
84841;BME280;75088;53.114;18.040;2023-12-20T17:36:41;99733.09;;;4.20;75.27
84841;BME280;75088;53.114;18.040;2023-12-20T17:37:50;99722.73;;;4.18;75.18
84841;BME280;75088;53.114;18.040;2023-12-20T17:38:58;99724.30;;;4.18;75.47
84841;BME280;75088;53.114;18.040;2023-12-20T17:40:08;99724.84;;;4.17;75.19
84841;BME280;75088;53.114;18.040;2023-12-20T17:41:16;99728.17;;;4.16;75.32
84841;BME280;75088;53.114;18.040;2023-12-20T17:42:23;99727.82;;;4.14;75.02
84841;BME280;75088;53.114;18.040;2023-12-20T17:43:31;99728.34;;;4.12;75.19
84841;BME280;75088;53.114;18.040;2023-12-20T17:44:38;99728.73;;;4.09;75.16
84841;BME280;75088;53.114;18.040;2023-12-20T17:45:45;99724.52;;;4.05;75.11
84841;BME280;75088;53.114;18.040;2023-12-20T17:46:52;99726.27;;;4.04;75.30
84841;BME280;75088;53.114;18.040;2023-12-20T17:47:58;99730.66;;;4.02;74.94
84841;BME280;75088;53.114;18.040;2023-12-20T17:49:06;99733.65;;;4.01;75.26
84841;BME280;75088;53.114;18.040;2023-12-20T17:50:12;99735.05;;;4.01;75.24
84841;BME280;75088;53.114;18.040;2023-12-20T17:51:19;99739.10;;;4.02;74.84
84841;BME280;75088;53.114;18.040;2023-12-20T17:52:27;99739.63;;;4.00;75.05
84841;BME280;75088;53.114;18.040;2023-12-20T17:53:34;99739.45;;;3.99;75.24
84841;BME280;75088;53.114;18.040;2023-12-20T17:54:41;99742.43;;;3.98;75.02
84841;BME280;75088;53.114;18.040;2023-12-20T17:55:48;99740.85;;;3.96;74.97
84841;BME280;75088;53.114;18.040;2023-12-20T17:56:55;99743.14;;;3.96;75.35
84841;BME280;75088;53.114;18.040;2023-12-20T17:58:03;99744.19;;;3.95;74.95
84841;BME280;75088;53.114;18.040;2023-12-20T17:59:10;99744.36;;;3.96;75.46
84841;BME280;75088;53.114;18.040;2023-12-20T18:00:20;99742.44;;;3.96;74.95
84841;BME280;75088;53.114;18.040;2023-12-20T18:01:28;99743.48;;;3.96;75.26
84841;BME280;75088;53.114;18.040;2023-12-20T18:02:35;99741.21;;;3.97;75.31
84841;BME280;75088;53.114;18.040;2023-12-20T18:03:42;99741.20;;;3.95;75.01
84841;BME280;75088;53.114;18.040;2023-12-20T18:04:49;99744.19;;;3.94;74.97
84841;BME280;75088;53.114;18.040;2023-12-20T18:05:56;99744.71;;;3.91;75.20
84841;BME280;75088;53.114;18.040;2023-12-20T18:07:03;99745.23;;;3.90;75.03
84841;BME280;75088;53.114;18.040;2023-12-20T18:08:11;99756.13;;;3.90;75.22
84841;BME280;75088;53.114;18.040;2023-12-20T18:09:18;99752.09;;;3.90;75.18
84841;BME280;75088;53.114;18.040;2023-12-20T18:10:25;99755.78;;;3.90;75.22
84841;BME280;75088;53.114;18.040;2023-12-20T18:11:32;99760.35;;;3.92;75.41
84841;BME280;75088;53.114;18.040;2023-12-20T18:12:39;99755.96;;;3.92;75.49
84841;BME280;75088;53.114;18.040;2023-12-20T18:13:47;99761.05;;;3.92;75.30
84841;BME280;75088;53.114;18.040;2023-12-20T18:14:54;99760.70;;;3.91;75.28
84841;BME280;75088;53.114;18.040;2023-12-20T18:16:01;99764.21;;;3.90;75.49
84841;BME280;75088;53.114;18.040;2023-12-20T18:17:08;99762.28;;;3.89;75.63
84841;BME280;75088;53.114;18.040;2023-12-20T18:18:15;99762.11;;;3.90;75.76
84841;BME280;75088;53.114;18.040;2023-12-20T18:19:22;99766.33;;;3.91;75.53
84841;BME280;75088;53.114;18.040;2023-12-20T18:20:29;99764.58;;;3.91;76.10
84841;BME280;75088;53.114;18.040;2023-12-20T18:21:36;99767.38;;;3.91;76.03
84841;BME280;75088;53.114;18.040;2023-12-20T18:22:44;99771.25;;;3.90;76.08
84841;BME280;75088;53.114;18.040;2023-12-20T18:23:51;99764.22;;;3.90;75.75
84841;BME280;75088;53.114;18.040;2023-12-20T18:24:58;99765.27;;;3.90;75.97
84841;BME280;75088;53.114;18.040;2023-12-20T18:26:05;99770.55;;;3.90;75.92
84841;BME280;75088;53.114;18.040;2023-12-20T18:27:12;99763.16;;;3.88;75.76
84841;BME280;75088;53.114;18.040;2023-12-20T18:28:19;99768.96;;;3.90;76.01
84841;BME280;75088;53.114;18.040;2023-12-20T18:29:26;99768.09;;;3.92;75.79
84841;BME280;75088;53.114;18.040;2023-12-20T18:30:33;99775.46;;;3.93;75.80
84841;BME280;75088;53.114;18.040;2023-12-20T18:31:40;99770.02;;;3.95;75.85
84841;BME280;75088;53.114;18.040;2023-12-20T18:32:48;99775.46;;;3.96;75.67
84841;BME280;75088;53.114;18.040;2023-12-20T18:33:55;99776.52;;;3.96;75.57
84841;BME280;75088;53.114;18.040;2023-12-20T18:35:03;99776.88;;;3.97;75.79
84841;BME280;75088;53.114;18.040;2023-12-20T18:36:10;99771.61;;;3.98;75.86
84841;BME280;75088;53.114;18.040;2023-12-20T18:37:17;99776.36;;;3.99;75.84
84841;BME280;75088;53.114;18.040;2023-12-20T18:38:24;99771.96;;;4.01;75.75
84841;BME280;75088;53.114;18.040;2023-12-20T18:39:34;99781.45;;;4.03;75.60
84841;BME280;75088;53.114;18.040;2023-12-20T18:40:41;99778.64;;;4.06;75.49
84841;BME280;75088;53.114;18.040;2023-12-20T18:41:53;99783.22;;;4.08;75.51
84841;BME280;75088;53.114;18.040;2023-12-20T18:43:00;99782.50;;;4.10;75.37
84841;BME280;75088;53.114;18.040;2023-12-20T18:44:07;99777.21;;;4.12;75.07
84841;BME280;75088;53.114;18.040;2023-12-20T18:45:15;99774.40;;;4.13;75.02
84841;BME280;75088;53.114;18.040;2023-12-20T18:46:22;99779.33;;;4.15;75.02
84841;BME280;75088;53.114;18.040;2023-12-20T18:47:30;99776.70;;;4.17;74.86
84841;BME280;75088;53.114;18.040;2023-12-20T18:48:37;99777.56;;;4.19;74.90
84841;BME280;75088;53.114;18.040;2023-12-20T18:49:46;99783.90;;;4.21;74.95
84841;BME280;75088;53.114;18.040;2023-12-20T18:50:52;99780.20;;;4.23;74.72
84841;BME280;75088;53.114;18.040;2023-12-20T18:52:00;99785.84;;;4.22;74.80
84841;BME280;75088;53.114;18.040;2023-12-20T18:53:08;99777.39;;;4.24;74.83
84841;BME280;75088;53.114;18.040;2023-12-20T18:54:15;99774.94;;;4.25;74.70
84841;BME280;75088;53.114;18.040;2023-12-20T18:55:23;99778.80;;;4.27;74.51
84841;BME280;75088;53.114;18.040;2023-12-20T18:56:31;99784.25;;;4.28;74.68
84841;BME280;75088;53.114;18.040;2023-12-20T18:57:38;99782.84;;;4.31;74.46
84841;BME280;75088;53.114;18.040;2023-12-20T18:58:44;99783.38;;;4.34;74.27
84841;BME280;75088;53.114;18.040;2023-12-20T18:59:52;99793.40;;;4.36;74.31
84841;BME280;75088;53.114;18.040;2023-12-20T19:00:59;99781.41;;;4.38;74.01
84841;BME280;75088;53.114;18.040;2023-12-20T19:02:07;99785.65;;;4.37;74.29
84841;BME280;75088;53.114;18.040;2023-12-20T19:03:14;99789.70;;;4.36;74.37
84841;BME280;75088;53.114;18.040;2023-12-20T19:04:21;99788.83;;;4.35;74.03
84841;BME280;75088;53.114;18.040;2023-12-20T19:05:28;99793.05;;;4.33;73.98
84841;BME280;75088;53.114;18.040;2023-12-20T19:06:35;99781.45;;;4.34;73.99
84841;BME280;75088;53.114;18.040;2023-12-20T19:07:42;99790.77;;;4.35;74.08
84841;BME280;75088;53.114;18.040;2023-12-20T19:08:49;99785.13;;;4.34;73.76
84841;BME280;75088;53.114;18.040;2023-12-20T19:09:57;99798.67;;;4.36;74.01
84841;BME280;75088;53.114;18.040;2023-12-20T19:11:04;99795.68;;;4.37;73.62
84841;BME280;75088;53.114;18.040;2023-12-20T19:12:11;99793.04;;;4.37;73.62
84841;BME280;75088;53.114;18.040;2023-12-20T19:13:18;99795.33;;;4.38;73.41
84841;BME280;75088;53.114;18.040;2023-12-20T19:14:25;99792.86;;;4.36;73.54
84841;BME280;75088;53.114;18.040;2023-12-20T19:15:32;99792.52;;;4.36;73.62
84841;BME280;75088;53.114;18.040;2023-12-20T19:16:39;99794.10;;;4.35;73.50
84841;BME280;75088;53.114;18.040;2023-12-20T19:17:46;99794.28;;;4.35;73.47
84841;BME280;75088;53.114;18.040;2023-12-20T19:18:53;99788.30;;;4.36;73.44
84841;BME280;75088;53.114;18.040;2023-12-20T19:20:00;99807.99;;;4.36;73.28
84841;BME280;75088;53.114;18.040;2023-12-20T19:21:10;99796.36;;;4.38;72.98
84841;BME280;75088;53.114;18.040;2023-12-20T19:22:17;99794.25;;;4.40;73.14
84841;BME280;75088;53.114;18.040;2023-12-20T19:23:24;99791.79;;;4.41;73.03
84841;BME280;75088;53.114;18.040;2023-12-20T19:24:31;99792.84;;;4.40;72.98
84841;BME280;75088;53.114;18.040;2023-12-20T19:25:38;99795.65;;;4.40;72.94
84841;BME280;75088;53.114;18.040;2023-12-20T19:26:44;99794.07;;;4.39;72.93
84841;BME280;75088;53.114;18.040;2023-12-20T19:27:52;99787.21;;;4.39;72.81
84841;BME280;75088;53.114;18.040;2023-12-20T19:28:59;99794.42;;;4.40;72.84
84841;BME280;75088;53.114;18.040;2023-12-20T19:30:08;99798.81;;;4.41;73.13
84841;BME280;75088;53.114;18.040;2023-12-20T19:31:15;99800.76;;;4.41;72.56
84841;BME280;75088;53.114;18.040;2023-12-20T19:32:22;99801.11;;;4.43;72.54
84841;BME280;75088;53.114;18.040;2023-12-20T19:33:34;99799.16;;;4.45;72.39
84841;BME280;75088;53.114;18.040;2023-12-20T19:34:41;99801.63;;;4.46;72.42
84841;BME280;75088;53.114;18.040;2023-12-20T19:35:48;99801.98;;;4.46;72.42
84841;BME280;75088;53.114;18.040;2023-12-20T19:36:55;99807.27;;;4.45;72.37
84841;BME280;75088;53.114;18.040;2023-12-20T19:38:02;99809.73;;;4.44;72.19
84841;BME280;75088;53.114;18.040;2023-12-20T19:39:09;99803.22;;;4.44;72.15
84841;BME280;75088;53.114;18.040;2023-12-20T19:40:16;99805.85;;;4.43;72.30
84841;BME280;75088;53.114;18.040;2023-12-20T19:41:24;99805.33;;;4.43;72.14
84841;BME280;75088;53.114;18.040;2023-12-20T19:42:31;99802.86;;;4.45;72.01
84841;BME280;75088;53.114;18.040;2023-12-20T19:43:41;99799.88;;;4.45;72.22
84841;BME280;75088;53.114;18.040;2023-12-20T19:44:49;99794.08;;;4.45;72.16
84841;BME280;75088;53.114;18.040;2023-12-20T19:45:55;99801.27;;;4.44;72.04
84841;BME280;75088;53.114;18.040;2023-12-20T19:47:03;99793.38;;;4.42;72.03
84841;BME280;75088;53.114;18.040;2023-12-20T19:48:10;99797.23;;;4.42;72.14
84841;BME280;75088;53.114;18.040;2023-12-20T19:49:17;99797.77;;;4.39;72.06
84841;BME280;75088;53.114;18.040;2023-12-20T19:50:24;99799.00;;;4.38;72.27
84841;BME280;75088;53.114;18.040;2023-12-20T19:51:32;99789.70;;;4.37;71.97
84841;BME280;75088;53.114;18.040;2023-12-20T19:52:39;99795.34;;;4.37;72.21
84841;BME280;75088;53.114;18.040;2023-12-20T19:53:46;99791.81;;;4.37;72.14
84841;BME280;75088;53.114;18.040;2023-12-20T19:54:53;99798.14;;;4.36;72.12
84841;BME280;75088;53.114;18.040;2023-12-20T19:56:00;99792.70;;;4.35;72.13
84841;BME280;75088;53.114;18.040;2023-12-20T19:57:07;99793.58;;;4.34;72.18
84841;BME280;75088;53.114;18.040;2023-12-20T19:58:14;99791.81;;;4.31;72.22
84841;BME280;75088;53.114;18.040;2023-12-20T19:59:21;99797.98;;;4.28;72.29
84841;BME280;75088;53.114;18.040;2023-12-20T20:00:28;99797.61;;;4.26;72.16
84841;BME280;75088;53.114;18.040;2023-12-20T20:01:35;99803.59;;;4.26;72.19
84841;BME280;75088;53.114;18.040;2023-12-20T20:02:45;99802.02;;;4.25;72.19
84841;BME280;75088;53.114;18.040;2023-12-20T20:03:53;99805.88;;;4.25;72.24
84841;BME280;75088;53.114;18.040;2023-12-20T20:04:59;99805.70;;;4.25;72.19
84841;BME280;75088;53.114;18.040;2023-12-20T20:06:08;99805.00;;;4.24;72.22
84841;BME280;75088;53.114;18.040;2023-12-20T20:07:15;99799.38;;;4.23;72.29
84841;BME280;75088;53.114;18.040;2023-12-20T20:08:25;99801.48;;;4.21;72.36
84841;BME280;75088;53.114;18.040;2023-12-20T20:09:32;99799.20;;;4.19;72.23
84841;BME280;75088;53.114;18.040;2023-12-20T20:10:39;99803.23;;;4.18;72.08
84841;BME280;75088;53.114;18.040;2023-12-20T20:11:47;99803.41;;;4.14;72.16
84841;BME280;75088;53.114;18.040;2023-12-20T20:12:54;99795.85;;;4.14;72.13
84841;BME280;75088;53.114;18.040;2023-12-20T20:14:01;99806.04;;;4.14;72.03
84841;BME280;75088;53.114;18.040;2023-12-20T20:15:09;99805.69;;;4.14;72.04
84841;BME280;75088;53.114;18.040;2023-12-20T20:16:16;99809.38;;;4.15;72.02
84841;BME280;75088;53.114;18.040;2023-12-20T20:17:23;99809.03;;;4.15;71.95
84841;BME280;75088;53.114;18.040;2023-12-20T20:18:30;99803.77;;;4.15;71.86
84841;BME280;75088;53.114;18.040;2023-12-20T20:19:37;99810.45;;;4.14;71.85
84841;BME280;75088;53.114;18.040;2023-12-20T20:20:45;99807.45;;;4.12;72.04
84841;BME280;75088;53.114;18.040;2023-12-20T20:21:52;99813.63;;;4.10;72.15
84841;BME280;75088;53.114;18.040;2023-12-20T20:22:59;99806.06;;;4.09;72.11
84841;BME280;75088;53.114;18.040;2023-12-20T20:24:08;99807.65;;;4.08;72.07
84841;BME280;75088;53.114;18.040;2023-12-20T20:25:15;99810.28;;;4.07;72.12
84841;BME280;75088;53.114;18.040;2023-12-20T20:26:22;99811.69;;;4.06;72.27
84841;BME280;75088;53.114;18.040;2023-12-20T20:27:29;99805.54;;;4.06;72.21
84841;BME280;75088;53.114;18.040;2023-12-20T20:28:36;99804.84;;;4.05;72.26
84841;BME280;75088;53.114;18.040;2023-12-20T20:29:43;99810.63;;;4.02;72.42
84841;BME280;75088;53.114;18.040;2023-12-20T20:30:51;99817.30;;;4.01;72.46
84841;BME280;75088;53.114;18.040;2023-12-20T20:31:58;99813.96;;;3.99;72.56
84841;BME280;75088;53.114;18.040;2023-12-20T20:33:05;99825.73;;;3.98;72.43
84841;BME280;75088;53.114;18.040;2023-12-20T20:34:12;99825.20;;;3.96;72.69
84841;BME280;75088;53.114;18.040;2023-12-20T20:35:19;99826.08;;;3.97;72.68
84841;BME280;75088;53.114;18.040;2023-12-20T20:36:27;99830.65;;;3.96;72.77
84841;BME280;75088;53.114;18.040;2023-12-20T20:37:34;99819.59;;;3.97;72.65
84841;BME280;75088;53.114;18.040;2023-12-20T20:38:41;99828.71;;;3.96;72.90
84841;BME280;75088;53.114;18.040;2023-12-20T20:39:48;99830.47;;;3.95;73.13
84841;BME280;75088;53.114;18.040;2023-12-20T20:40:55;99828.02;;;3.93;73.05
84841;BME280;75088;53.114;18.040;2023-12-20T20:42:05;99830.12;;;3.92;73.17
84841;BME280;75088;53.114;18.040;2023-12-20T20:43:12;99825.02;;;3.91;73.13
84841;BME280;75088;53.114;18.040;2023-12-20T20:44:19;99832.74;;;3.90;73.32
84841;BME280;75088;53.114;18.040;2023-12-20T20:45:25;99823.78;;;3.90;73.33
84841;BME280;75088;53.114;18.040;2023-12-20T20:46:34;99823.78;;;3.90;73.19
84841;BME280;75088;53.114;18.040;2023-12-20T20:47:41;99827.46;;;3.89;73.45
84841;BME280;75088;53.114;18.040;2023-12-20T20:48:48;99828.34;;;3.88;73.60
84841;BME280;75088;53.114;18.040;2023-12-20T20:49:55;99825.17;;;3.86;73.45
84841;BME280;75088;53.114;18.040;2023-12-20T20:51:02;99826.75;;;3.84;73.43
84841;BME280;75088;53.114;18.040;2023-12-20T20:52:09;99840.64;;;3.83;73.87
84841;BME280;75088;53.114;18.040;2023-12-20T20:53:16;99843.28;;;3.83;73.66
84841;BME280;75088;53.114;18.040;2023-12-20T20:54:23;99835.37;;;3.85;73.61
84841;BME280;75088;53.114;18.040;2023-12-20T20:55:30;99828.52;;;3.86;73.74
84841;BME280;75088;53.114;18.040;2023-12-20T20:56:37;99837.48;;;3.87;73.86
84841;BME280;75088;53.114;18.040;2023-12-20T20:57:44;99834.66;;;3.87;73.72
84841;BME280;75088;53.114;18.040;2023-12-20T20:58:53;99840.64;;;3.88;74.05
84841;BME280;75088;53.114;18.040;2023-12-20T20:59:59;99852.94;;;3.87;73.90
84841;BME280;75088;53.114;18.040;2023-12-20T21:01:07;99847.84;;;3.88;74.05
84841;BME280;75088;53.114;18.040;2023-12-20T21:02:14;99849.79;;;3.89;73.83
84841;BME280;75088;53.114;18.040;2023-12-20T21:03:21;99845.75;;;3.91;73.87
84841;BME280;75088;53.114;18.040;2023-12-20T21:04:28;99841.89;;;3.93;74.03
84841;BME280;75088;53.114;18.040;2023-12-20T21:05:35;99845.23;;;3.94;73.96
84841;BME280;75088;53.114;18.040;2023-12-20T21:06:42;99850.86;;;3.94;73.84
84841;BME280;75088;53.114;18.040;2023-12-20T21:07:49;99840.31;;;3.95;73.86
84841;BME280;75088;53.114;18.040;2023-12-20T21:08:56;99843.48;;;3.95;73.82
84841;BME280;75088;53.114;18.040;2023-12-20T21:10:03;99848.92;;;3.95;73.94
84841;BME280;75088;53.114;18.040;2023-12-20T21:11:10;99846.63;;;3.93;74.01
84841;BME280;75088;53.114;18.040;2023-12-20T21:12:19;99845.23;;;3.94;74.00
84841;BME280;75088;53.114;18.040;2023-12-20T21:13:27;99846.98;;;3.95;73.96
84841;BME280;75088;53.114;18.040;2023-12-20T21:14:35;99842.59;;;3.96;74.00
84841;BME280;75088;53.114;18.040;2023-12-20T21:15:42;99847.86;;;3.94;73.88
84841;BME280;75088;53.114;18.040;2023-12-20T21:16:49;99841.55;;;3.95;74.03
84841;BME280;75088;53.114;18.040;2023-12-20T21:17:56;99844.70;;;3.94;74.09
84841;BME280;75088;53.114;18.040;2023-12-20T21:19:03;99839.08;;;3.94;74.05
84841;BME280;75088;53.114;18.040;2023-12-20T21:20:12;99851.20;;;3.92;74.25
84841;BME280;75088;53.114;18.040;2023-12-20T21:21:19;99847.16;;;3.92;74.46
84841;BME280;75088;53.114;18.040;2023-12-20T21:22:26;99842.06;;;3.93;74.27
84841;BME280;75088;53.114;18.040;2023-12-20T21:23:33;99854.02;;;3.93;74.41
84841;BME280;75088;53.114;18.040;2023-12-20T21:24:40;99854.02;;;3.92;74.66
84841;BME280;75088;53.114;18.040;2023-12-20T21:25:47;99855.77;;;3.92;74.63
84841;BME280;75088;53.114;18.040;2023-12-20T21:26:54;99851.02;;;3.90;74.46
84841;BME280;75088;53.114;18.040;2023-12-20T21:28:01;99851.89;;;3.90;74.45
84841;BME280;75088;53.114;18.040;2023-12-20T21:29:08;99849.96;;;3.90;74.58
84841;BME280;75088;53.114;18.040;2023-12-20T21:30:16;99846.98;;;3.90;74.42
84841;BME280;75088;53.114;18.040;2023-12-20T21:31:23;99858.23;;;3.91;74.71
84841;BME280;75088;53.114;18.040;2023-12-20T21:32:30;99845.75;;;3.91;74.58
84841;BME280;75088;53.114;18.040;2023-12-20T21:33:37;99850.48;;;3.92;74.57
84841;BME280;75088;53.114;18.040;2023-12-20T21:34:45;99848.73;;;3.92;74.46
84841;BME280;75088;53.114;18.040;2023-12-20T21:35:52;99847.16;;;3.92;74.66
84841;BME280;75088;53.114;18.040;2023-12-20T21:36:59;99851.73;;;3.92;74.53
84841;BME280;75088;53.114;18.040;2023-12-20T21:38:06;99856.30;;;3.92;74.68
84841;BME280;75088;53.114;18.040;2023-12-20T21:39:13;99844.88;;;3.95;74.28
84841;BME280;75088;53.114;18.040;2023-12-20T21:40:20;99849.10;;;3.96;74.33
84841;BME280;75088;53.114;18.040;2023-12-20T21:41:27;99854.73;;;3.96;74.59
84841;BME280;75088;53.114;18.040;2023-12-20T21:42:34;99836.45;;;3.97;74.41
84841;BME280;75088;53.114;18.040;2023-12-20T21:43:41;99841.02;;;3.97;74.39
84841;BME280;75088;53.114;18.040;2023-12-20T21:44:48;99833.29;;;3.97;74.41
84841;BME280;75088;53.114;18.040;2023-12-20T21:45:55;99836.98;;;3.97;74.32
84841;BME280;75088;53.114;18.040;2023-12-20T21:47:02;99836.63;;;3.97;74.35
84841;BME280;75088;53.114;18.040;2023-12-20T21:48:10;99842.08;;;3.99;74.35
84841;BME280;75088;53.114;18.040;2023-12-20T21:49:17;99842.96;;;3.99;74.11
84841;BME280;75088;53.114;18.040;2023-12-20T21:50:24;99840.33;;;3.99;74.28
84841;BME280;75088;53.114;18.040;2023-12-20T21:51:31;99835.58;;;4.00;74.12
84841;BME280;75088;53.114;18.040;2023-12-20T21:52:38;99838.04;;;3.99;74.20
84841;BME280;75088;53.114;18.040;2023-12-20T21:53:45;99834.52;;;3.99;74.10
84841;BME280;75088;53.114;18.040;2023-12-20T21:54:52;99837.51;;;3.99;73.90
84841;BME280;75088;53.114;18.040;2023-12-20T21:55:59;99842.44;;;4.00;74.13
84841;BME280;75088;53.114;18.040;2023-12-20T21:57:07;99839.63;;;4.02;73.86
84841;BME280;75088;53.114;18.040;2023-12-20T21:58:13;99835.06;;;4.03;73.92
84841;BME280;75088;53.114;18.040;2023-12-20T21:59:20;99830.84;;;4.04;73.72
84841;BME280;75088;53.114;18.040;2023-12-20T22:00:30;99840.34;;;4.04;73.65
84841;BME280;75088;53.114;18.040;2023-12-20T22:01:41;99829.61;;;4.04;73.58
84841;BME280;75088;53.114;18.040;2023-12-20T22:02:49;99832.25;;;4.03;73.60
84841;BME280;75088;53.114;18.040;2023-12-20T22:03:56;99836.83;;;4.03;73.46
84841;BME280;75088;53.114;18.040;2023-12-20T22:05:03;99826.45;;;4.04;73.50
84841;BME280;75088;53.114;18.040;2023-12-20T22:06:10;99832.60;;;4.03;73.56
84841;BME280;75088;53.114;18.040;2023-12-20T22:07:17;99825.92;;;4.03;73.52
84841;BME280;75088;53.114;18.040;2023-12-20T22:08:25;99821.70;;;4.02;73.34
84841;BME280;75088;53.114;18.040;2023-12-20T22:09:31;99833.48;;;4.00;73.64
84841;BME280;75088;53.114;18.040;2023-12-20T22:10:39;99827.85;;;4.00;73.54
84841;BME280;75088;53.114;18.040;2023-12-20T22:11:46;99825.39;;;3.99;73.79
84841;BME280;75088;53.114;18.040;2023-12-20T22:12:53;99828.55;;;4.00;73.78
84841;BME280;75088;53.114;18.040;2023-12-20T22:14:00;99829.25;;;4.00;73.74
84841;BME280;75088;53.114;18.040;2023-12-20T22:15:09;99823.10;;;4.00;73.81
84841;BME280;75088;53.114;18.040;2023-12-20T22:16:16;99818.88;;;4.00;73.84
84841;BME280;75088;53.114;18.040;2023-12-20T22:17:23;99824.33;;;3.98;74.06
84841;BME280;75088;53.114;18.040;2023-12-20T22:18:30;99817.48;;;3.97;73.92
84841;BME280;75088;53.114;18.040;2023-12-20T22:19:37;99821.16;;;3.95;74.12
84841;BME280;75088;53.114;18.040;2023-12-20T22:20:44;99813.42;;;3.93;74.28
84841;BME280;75088;53.114;18.040;2023-12-20T22:21:51;99814.65;;;3.92;74.61
84841;BME280;75088;53.114;18.040;2023-12-20T22:22:58;99813.42;;;3.91;74.54
84841;BME280;75088;53.114;18.040;2023-12-20T22:24:06;99813.77;;;3.91;74.64
84841;BME280;75088;53.114;18.040;2023-12-20T22:25:13;99804.45;;;3.90;74.70
84841;BME280;75088;53.114;18.040;2023-12-20T22:26:20;99807.88;;;3.89;74.54
84841;BME280;75088;53.114;18.040;2023-12-20T22:27:27;99803.21;;;3.86;74.56
84841;BME280;75088;53.114;18.040;2023-12-20T22:28:34;99793.20;;;3.84;74.42
84841;BME280;75088;53.114;18.040;2023-12-20T22:29:42;99794.27;;;3.82;74.61
84841;BME280;75088;53.114;18.040;2023-12-20T22:30:49;99797.44;;;3.81;74.79
84841;BME280;75088;53.114;18.040;2023-12-20T22:31:56;99802.70;;;3.81;74.97
84841;BME280;75088;53.114;18.040;2023-12-20T22:33:04;99796.56;;;3.80;74.82
84841;BME280;75088;53.114;18.040;2023-12-20T22:34:11;99797.78;;;3.81;74.82
84841;BME280;75088;53.114;18.040;2023-12-20T22:35:18;99792.86;;;3.80;74.81
84841;BME280;75088;53.114;18.040;2023-12-20T22:36:25;99787.95;;;3.79;74.88
84841;BME280;75088;53.114;18.040;2023-12-20T22:37:32;99786.54;;;3.77;74.89
84841;BME280;75088;53.114;18.040;2023-12-20T22:38:39;99786.54;;;3.75;75.14
84841;BME280;75088;53.114;18.040;2023-12-20T22:39:46;99780.73;;;3.74;75.07
84841;BME280;75088;53.114;18.040;2023-12-20T22:40:53;99783.20;;;3.75;75.09
84841;BME280;75088;53.114;18.040;2023-12-20T22:42:00;99786.52;;;3.76;75.23
84841;BME280;75088;53.114;18.040;2023-12-20T22:43:07;99789.69;;;3.76;75.24
84841;BME280;75088;53.114;18.040;2023-12-20T22:44:15;99787.59;;;3.76;75.41
84841;BME280;75088;53.114;18.040;2023-12-20T22:45:22;99786.36;;;3.76;75.27
84841;BME280;75088;53.114;18.040;2023-12-20T22:46:29;99784.42;;;3.76;75.64
84841;BME280;75088;53.114;18.040;2023-12-20T22:47:36;99791.63;;;3.75;75.65
84841;BME280;75088;53.114;18.040;2023-12-20T22:48:44;99781.97;;;3.79;75.82
84841;BME280;75088;53.114;18.040;2023-12-20T22:49:50;99788.30;;;3.80;75.80
84841;BME280;75088;53.114;18.040;2023-12-20T22:50:58;99782.15;;;3.82;76.26
84841;BME280;75088;53.114;18.040;2023-12-20T22:52:06;99781.45;;;3.81;76.70
84841;BME280;75088;53.114;18.040;2023-12-20T22:53:13;99787.95;;;3.80;76.56
84841;BME280;75088;53.114;18.040;2023-12-20T22:54:20;99778.45;;;3.78;76.92
84841;BME280;75088;53.114;18.040;2023-12-20T22:55:27;99777.58;;;3.75;76.85
84841;BME280;75088;53.114;18.040;2023-12-20T22:56:33;99773.35;;;3.72;76.89
84841;BME280;75088;53.114;18.040;2023-12-20T22:57:40;99771.95;;;3.71;77.25
84841;BME280;75088;53.114;18.040;2023-12-20T22:58:47;99764.04;;;3.70;77.00
84841;BME280;75088;53.114;18.040;2023-12-20T22:59:54;99768.95;;;3.69;77.22
84841;BME280;75088;53.114;18.040;2023-12-20T23:01:01;99768.08;;;3.69;76.98
84841;BME280;75088;53.114;18.040;2023-12-20T23:02:08;99771.59;;;3.69;77.18
84841;BME280;75088;53.114;18.040;2023-12-20T23:03:16;99771.59;;;3.69;77.33
84841;BME280;75088;53.114;18.040;2023-12-20T23:04:23;99769.13;;;3.68;77.33
84841;BME280;75088;53.114;18.040;2023-12-20T23:05:30;99765.96;;;3.67;77.50
84841;BME280;75088;53.114;18.040;2023-12-20T23:06:37;99765.44;;;3.67;77.63
84841;BME280;75088;53.114;18.040;2023-12-20T23:07:45;99762.45;;;3.67;77.49
84841;BME280;75088;53.114;18.040;2023-12-20T23:08:52;99758.05;;;3.69;77.44
84841;BME280;75088;53.114;18.040;2023-12-20T23:09:59;99758.77;;;3.69;77.25
84841;BME280;75088;53.114;18.040;2023-12-20T23:11:06;99756.13;;;3.70;77.42
84841;BME280;75088;53.114;18.040;2023-12-20T23:12:12;99757.36;;;3.70;77.16
84841;BME280;75088;53.114;18.040;2023-12-20T23:13:20;99749.27;;;3.69;77.23
84841;BME280;75088;53.114;18.040;2023-12-20T23:14:27;99754.73;;;3.69;77.15
84841;BME280;75088;53.114;18.040;2023-12-20T23:15:34;99755.61;;;3.70;77.28
84841;BME280;75088;53.114;18.040;2023-12-20T23:16:41;99757.71;;;3.71;77.30